createdAt,value
2018-09-14T00:01:22.805Z,85.40
2018-09-14T00:03:50.368Z,85.50
2018-09-14T00:06:17.961Z,85.50
2018-09-14T00:08:45.520Z,85.50
2018-09-14T00:11:13.078Z,85.50
2018-09-14T00:13:41.091Z,85.50
2018-09-14T00:16:08.659Z,85.60
2018-09-14T00:18:36.218Z,85.60
2018-09-14T00:21:03.814Z,85.50
2018-09-14T00:23:31.380Z,85.30
2018-09-14T00:25:59.708Z,84.70
2018-09-14T00:28:27.360Z,84.00
2018-09-14T00:30:54.926Z,84.00
2018-09-14T00:33:22.806Z,84.10
2018-09-14T00:35:50.424Z,84.20
2018-09-14T00:38:17.993Z,84.30
2018-09-14T00:40:45.566Z,84.30
2018-09-14T00:43:13.195Z,84.50
2018-09-14T00:45:40.750Z,84.60
2018-09-14T00:48:08.284Z,84.70
2018-09-14T00:50:35.954Z,84.60
2018-09-14T00:53:03.484Z,84.50
2018-09-14T00:55:31.041Z,84.40
2018-09-14T00:57:59.548Z,84.40
2018-09-14T01:00:27.109Z,84.30
2018-09-14T01:02:54.970Z,84.20
2018-09-14T01:05:23.056Z,84.30
2018-09-14T01:07:50.621Z,84.50
2018-09-14T01:10:18.179Z,84.50
2018-09-14T01:12:45.779Z,84.70
2018-09-14T01:15:13.349Z,84.80
2018-09-14T01:17:40.912Z,84.90
2018-09-14T01:20:08.546Z,85.00
2018-09-14T01:22:36.073Z,85.00
2018-09-14T01:25:03.636Z,84.30
2018-09-14T01:27:31.257Z,84.40
2018-09-14T01:29:58.819Z,84.40
2018-09-14T01:32:26.381Z,84.60
2018-09-14T01:34:53.983Z,84.70
2018-09-14T01:37:21.554Z,84.80
2018-09-14T01:39:49.123Z,84.80
2018-09-14T01:42:16.716Z,84.70
2018-09-14T01:44:44.279Z,84.60
2018-09-14T01:47:12.610Z,84.00
2018-09-14T01:49:40.232Z,84.00
2018-09-14T01:52:07.789Z,84.00
2018-09-14T01:54:35.348Z,84.20
2018-09-14T01:57:02.983Z,84.40
2018-09-14T01:59:30.556Z,84.40
2018-09-14T02:01:58.884Z,84.80
2018-09-14T02:04:26.480Z,84.70
2018-09-14T02:06:54.063Z,84.80
2018-09-14T02:09:22.396Z,84.00
2018-09-14T02:11:50.445Z,83.90
2018-09-14T02:14:18.003Z,83.20
2018-09-14T02:16:45.568Z,83.40
2018-09-14T02:19:13.166Z,83.90
2018-09-14T02:21:40.726Z,84.30
2018-09-14T02:24:08.283Z,84.60
2018-09-14T02:26:35.876Z,84.70
2018-09-14T02:29:04.213Z,84.30
2018-09-14T02:31:31.766Z,84.50
2018-09-14T02:33:59.383Z,84.60
2018-09-14T02:36:27.708Z,85.70
2018-09-14T02:38:55.267Z,85.10
2018-09-14T02:41:22.873Z,85.40
2018-09-14T02:43:50.428Z,85.70
2018-09-14T02:46:17.995Z,85.90
2018-09-14T02:48:45.592Z,86.20
2018-09-14T02:51:13.154Z,86.40
2018-09-14T02:53:40.718Z,86.60
2018-09-14T02:56:08.719Z,86.50
2018-09-14T02:58:36.317Z,86.40
2018-09-14T03:01:03.898Z,86.50
2018-09-14T03:03:31.498Z,85.90
2018-09-14T03:05:59.056Z,86.70
2018-09-14T03:08:26.633Z,86.80
2018-09-14T03:10:54.209Z,87.00
2018-09-14T03:13:21.761Z,87.20
2018-09-14T03:15:49.316Z,87.30
2018-09-14T03:18:16.938Z,87.30
2018-09-14T03:20:44.507Z,87.30
2018-09-14T03:23:12.067Z,87.40
2018-09-14T03:25:39.661Z,86.90
2018-09-14T03:28:07.219Z,86.80
2018-09-14T03:30:34.792Z,86.80
2018-09-14T03:33:02.387Z,86.40
2018-09-14T03:35:29.948Z,86.40
2018-09-14T03:37:58.291Z,86.70
2018-09-14T03:40:25.896Z,86.70
2018-09-14T03:42:54.236Z,87.10
2018-09-14T03:45:21.786Z,87.00
2018-09-14T03:47:49.378Z,87.20
2018-09-14T03:50:16.945Z,87.30
2018-09-14T03:52:45.270Z,87.40
2018-09-14T03:55:12.883Z,87.40
2018-09-14T03:57:40.427Z,87.40
2018-09-14T04:00:07.986Z,87.40
2018-09-14T04:02:36.191Z,87.30
2018-09-14T04:05:03.753Z,87.30
2018-09-14T04:07:32.078Z,86.90
2018-09-14T04:09:59.672Z,86.90
2018-09-14T04:12:27.231Z,86.80
2018-09-14T04:14:54.797Z,87.00
2018-09-14T04:17:22.431Z,87.20
2018-09-14T04:19:49.990Z,87.30
2018-09-14T04:22:17.569Z,87.40
2018-09-14T04:24:45.631Z,87.50
2018-09-14T04:27:13.193Z,87.60
2018-09-14T04:29:40.767Z,87.70
2018-09-14T04:32:08.361Z,87.80
2018-09-14T04:34:36.695Z,87.60
2018-09-14T04:37:04.273Z,87.60
2018-09-14T04:39:31.871Z,86.90
2018-09-14T04:42:02.072Z,86.80
2018-09-14T04:44:29.630Z,87.10
2018-09-14T04:46:57.258Z,87.20
2018-09-14T04:49:24.826Z,87.40
2018-09-14T04:51:52.551Z,88.30
2018-09-14T04:54:20.146Z,87.80
2018-09-14T04:56:47.701Z,87.90
2018-09-14T04:59:15.272Z,87.90
2018-09-14T05:01:43.548Z,87.30
2018-09-14T05:04:11.111Z,87.10
2018-09-14T05:06:38.670Z,87.30
2018-09-14T05:09:06.660Z,87.40
2018-09-14T05:11:34.226Z,87.40
2018-09-14T05:14:01.845Z,87.60
2018-09-14T05:16:29.431Z,87.90
2018-09-14T05:18:56.994Z,87.20
2018-09-14T05:21:24.557Z,86.30
2018-09-14T05:23:53.089Z,85.80
2018-09-14T05:26:20.597Z,85.80
2018-09-14T05:28:48.169Z,86.00
2018-09-14T05:31:16.120Z,86.10
2018-09-14T05:33:43.701Z,85.60
2018-09-14T05:36:11.266Z,85.00
2018-09-14T05:38:38.913Z,84.90
2018-09-14T05:41:06.469Z,84.90
2018-09-14T05:43:34.029Z,84.60
2018-09-14T05:46:01.677Z,84.60
2018-09-14T05:48:29.235Z,84.70
2018-09-14T05:50:56.796Z,84.70
2018-09-14T05:53:24.409Z,84.80
2018-09-14T05:55:51.971Z,85.00
2018-09-14T05:58:22.468Z,85.00
2018-09-14T06:00:50.087Z,84.90
2018-09-14T06:03:18.410Z,84.20
2018-09-14T06:05:45.971Z,84.10
2018-09-14T06:08:14.154Z,84.30
2018-09-14T06:10:41.715Z,84.50
2018-09-14T06:13:09.278Z,84.60
2018-09-14T06:15:37.647Z,84.30
2018-09-14T06:18:05.211Z,83.80
2018-09-14T06:20:32.778Z,83.70
2018-09-14T06:23:00.440Z,83.30
2018-09-14T06:25:28.720Z,83.70
2018-09-14T06:27:56.280Z,83.70
2018-09-14T06:30:23.939Z,83.70
2018-09-14T06:32:52.519Z,84.00
2018-09-14T06:35:20.081Z,83.90
2018-09-14T06:37:48.555Z,83.90
2018-09-14T06:40:16.123Z,83.90
2018-09-14T06:42:43.685Z,84.60
2018-09-14T06:45:11.610Z,83.90
2018-09-14T06:47:39.423Z,83.70
2018-09-14T06:50:06.990Z,83.60
2018-09-14T06:52:35.051Z,83.60
2018-09-14T06:55:02.630Z,83.60
2018-09-14T06:57:30.183Z,83.50
2018-09-14T06:59:58.408Z,83.40
2018-09-14T07:02:25.920Z,83.40
2018-09-14T07:04:53.484Z,83.40
2018-09-14T07:07:21.448Z,83.50
2018-09-14T07:09:49.008Z,83.40
2018-09-14T07:12:16.567Z,83.90
2018-09-14T07:14:44.218Z,82.40
2018-09-14T07:17:11.793Z,82.20
2018-09-14T07:19:39.355Z,82.10
2018-09-14T07:22:08.019Z,81.90
2018-09-14T07:24:35.580Z,82.70
2018-09-14T07:27:03.068Z,82.00
2018-09-14T07:29:30.661Z,82.00
2018-09-14T07:31:59.332Z,81.80
2018-09-14T07:34:26.922Z,81.80
2018-09-14T07:36:55.249Z,81.20
2018-09-14T07:39:22.826Z,81.20
2018-09-14T07:41:50.782Z,80.90
2018-09-14T07:44:18.337Z,80.80
2018-09-14T07:46:46.210Z,80.10
2018-09-14T07:49:13.805Z,79.80
2018-09-14T07:51:41.638Z,80.00
2018-09-14T07:54:10.226Z,80.10
2018-09-14T07:56:37.791Z,79.90
2018-09-14T07:59:05.348Z,79.70
2018-09-14T08:01:33.732Z,79.70
2018-09-14T08:04:01.292Z,79.70
2018-09-14T08:06:28.850Z,79.50
2018-09-14T08:08:56.461Z,79.00
2018-09-14T08:11:24.806Z,78.80
2018-09-14T08:13:52.382Z,78.80
2018-09-14T08:16:20.529Z,78.70
2018-09-14T08:18:48.097Z,78.80
2018-09-14T08:21:15.755Z,78.60
2018-09-14T08:23:43.312Z,78.50
2018-09-14T08:26:11.389Z,78.30
2018-09-14T08:28:38.964Z,78.20
2018-09-14T08:31:07.266Z,77.70
2018-09-14T08:33:34.830Z,77.40
2018-09-14T08:36:03.162Z,77.00
2018-09-14T08:38:32.061Z,76.90
2018-09-14T08:40:59.629Z,76.60
2018-09-14T08:43:27.196Z,76.20
2018-09-14T08:45:54.830Z,75.40
2018-09-14T08:48:22.406Z,74.00
2018-09-14T08:50:49.965Z,73.60
2018-09-14T08:53:18.139Z,73.30
2018-09-14T08:55:45.695Z,73.20
2018-09-14T08:58:13.293Z,73.40
2018-09-14T09:00:40.884Z,73.50
2018-09-14T09:03:08.413Z,73.40
2018-09-14T09:05:36.026Z,73.60
2018-09-14T09:08:03.583Z,73.30
2018-09-14T09:10:31.144Z,72.90
2018-09-14T09:12:58.775Z,72.30
2018-09-14T09:15:27.101Z,71.80
2018-09-14T09:17:55.082Z,71.60
2018-09-14T09:20:23.150Z,71.30
2018-09-14T09:22:50.711Z,71.20
2018-09-14T09:25:18.280Z,71.30
2018-09-14T09:27:46.350Z,71.40
2018-09-14T09:30:13.915Z,71.10
2018-09-14T09:32:41.473Z,71.20
2018-09-14T09:35:09.141Z,70.50
2018-09-14T09:37:36.701Z,70.30
2018-09-14T09:40:04.268Z,70.40
2018-09-14T09:42:31.877Z,69.30
2018-09-14T09:44:59.453Z,67.70
2018-09-14T09:47:27.013Z,66.10
2018-09-14T09:49:54.638Z,65.10
2018-09-14T09:52:22.193Z,64.90
2018-09-14T09:54:49.759Z,65.00
2018-09-14T09:57:17.402Z,65.00
2018-09-14T09:59:44.972Z,64.80
2018-09-14T10:02:12.531Z,63.70
2018-09-14T10:04:40.114Z,62.00
2018-09-14T10:07:07.689Z,60.60
2018-09-14T10:09:36.531Z,59.70
2018-09-14T10:12:04.085Z,59.70
2018-09-14T10:14:32.055Z,59.20
2018-09-14T10:16:59.637Z,58.90
2018-09-14T10:19:27.197Z,58.70
2018-09-14T10:21:54.812Z,58.50
2018-09-14T10:24:22.605Z,58.20
2018-09-14T10:26:50.463Z,57.90
2018-09-14T10:29:18.008Z,57.80
2018-09-14T10:31:45.570Z,57.80
2018-09-14T10:34:13.124Z,57.60
2018-09-14T10:36:40.783Z,57.40
2018-09-14T10:39:08.341Z,57.10
2018-09-14T10:41:35.893Z,56.60
2018-09-14T10:44:03.528Z,56.00
2018-09-14T10:46:31.086Z,55.60
2018-09-14T10:48:58.690Z,55.40
2018-09-14T10:51:26.265Z,54.10
2018-09-14T10:53:53.831Z,53.30
2018-09-14T10:56:21.396Z,53.90
2018-09-14T10:58:49.042Z,53.30
2018-09-14T11:01:16.593Z,53.40
2018-09-14T11:03:44.931Z,53.00
2018-09-14T11:06:12.884Z,53.00
2018-09-14T11:08:40.449Z,52.90
2018-09-14T11:11:08.012Z,52.80
2018-09-14T11:13:36.299Z,52.80
2018-09-14T11:16:04.144Z,52.70
2018-09-14T11:18:31.753Z,52.50
2018-09-14T11:20:59.301Z,51.90
2018-09-14T11:23:26.858Z,51.70
2018-09-14T11:25:54.644Z,51.20
2018-09-14T11:28:23.852Z,50.70
2018-09-14T11:30:52.195Z,50.30
2018-09-14T11:33:19.756Z,50.30
2018-09-14T11:35:47.341Z,50.50
2018-09-14T11:38:14.963Z,50.50
2018-09-14T11:40:42.505Z,50.80
2018-09-14T11:43:10.070Z,51.50
2018-09-14T11:45:37.631Z,51.10
2018-09-14T11:48:05.245Z,51.40
2018-09-14T11:50:32.800Z,51.30
2018-09-14T11:53:00.359Z,50.90
2018-09-14T11:55:28.660Z,51.30
2018-09-14T11:57:56.984Z,50.10
2018-09-14T12:00:24.545Z,50.10
2018-09-14T12:02:52.622Z,50.10
2018-09-14T12:05:20.173Z,50.20
2018-09-14T12:07:47.733Z,50.60
2018-09-14T12:10:15.719Z,50.80
2018-09-14T12:12:43.285Z,50.80
2018-09-14T12:15:10.851Z,50.90
2018-09-14T12:17:38.491Z,51.00
2018-09-14T12:20:06.058Z,50.80
2018-09-14T12:22:33.607Z,50.50
2018-09-14T12:25:01.226Z,50.40
2018-09-14T12:27:28.760Z,50.50
2018-09-14T12:29:56.738Z,50.30
2018-09-14T12:32:24.292Z,50.30
2018-09-14T12:34:51.842Z,49.70
2018-09-14T12:37:19.498Z,49.10
2018-09-14T12:39:47.771Z,49.00
2018-09-14T12:42:15.335Z,49.00
2018-09-14T12:44:43.436Z,49.20
2018-09-14T12:47:10.998Z,49.60
2018-09-14T12:49:38.552Z,49.70
2018-09-14T12:52:06.617Z,49.70
2018-09-14T12:54:34.179Z,50.10
2018-09-14T12:57:01.974Z,50.10
2018-09-14T12:59:30.833Z,50.40
2018-09-14T13:01:58.388Z,49.70
2018-09-14T13:04:25.978Z,50.10
2018-09-14T13:06:53.552Z,50.20
2018-09-14T13:09:21.877Z,50.20
2018-09-14T13:11:49.437Z,49.90
2018-09-14T13:14:17.076Z,49.70
2018-09-14T13:16:44.645Z,49.50
2018-09-14T13:19:12.205Z,49.60
2018-09-14T13:21:40.312Z,49.40
2018-09-14T13:24:07.900Z,49.60
2018-09-14T13:26:35.421Z,49.00
2018-09-14T13:29:03.812Z,49.10
2018-09-14T13:31:31.374Z,49.10
2018-09-14T13:33:58.935Z,49.20
2018-09-14T13:36:26.581Z,49.40
2018-09-14T13:38:54.139Z,49.30
2018-09-14T13:41:21.692Z,48.90
2018-09-14T13:43:50.001Z,49.20
2018-09-14T13:46:17.554Z,49.00
2018-09-14T13:48:45.430Z,49.20
2018-09-14T13:51:13.065Z,49.10
2018-09-14T13:53:40.619Z,49.20
2018-09-14T13:56:08.174Z,49.50
2018-09-14T13:58:35.780Z,49.20
2018-09-14T14:01:03.333Z,50.00
2018-09-14T14:03:30.888Z,49.20
2018-09-14T14:05:58.503Z,48.90
2018-09-14T14:08:26.054Z,48.80
2018-09-14T14:10:53.608Z,48.90
2018-09-14T14:13:21.218Z,48.90
2018-09-14T14:15:48.778Z,49.00
2018-09-14T14:18:16.325Z,49.00
2018-09-14T14:20:44.442Z,49.20
2018-09-14T14:23:12.016Z,49.30
2018-09-14T14:25:39.551Z,49.30
2018-09-14T14:28:07.631Z,49.40
2018-09-14T14:30:35.224Z,49.50
2018-09-14T14:33:02.760Z,49.20
2018-09-14T14:35:30.360Z,49.30
2018-09-14T14:37:57.920Z,49.40
2018-09-14T14:40:26.239Z,50.60
2018-09-14T14:42:53.848Z,50.00
2018-09-14T14:45:21.892Z,49.80
2018-09-14T14:47:49.462Z,49.80
2018-09-14T14:50:17.065Z,49.40
2018-09-14T14:52:45.389Z,49.40
2018-09-14T14:55:12.940Z,49.40
2018-09-14T14:57:41.441Z,49.60
2018-09-14T15:00:09.001Z,49.90
2018-09-14T15:02:36.559Z,50.10
2018-09-14T15:05:04.642Z,50.30
2018-09-14T15:07:32.237Z,50.50
2018-09-14T15:10:00.187Z,50.40
2018-09-14T15:12:28.549Z,49.80
2018-09-14T15:14:56.114Z,49.70
2018-09-14T15:17:23.673Z,49.80
2018-09-14T15:19:51.303Z,50.50
2018-09-14T15:22:18.864Z,50.00
2018-09-14T15:24:46.419Z,50.30
2018-09-14T15:27:14.032Z,50.50
2018-09-14T15:29:41.599Z,50.40
2018-09-14T15:32:09.152Z,50.30
2018-09-14T15:34:36.749Z,50.10
2018-09-14T15:37:05.073Z,50.70
2018-09-14T15:39:32.630Z,50.70
2018-09-14T15:42:00.274Z,50.90
2018-09-14T15:44:27.827Z,50.90
2018-09-14T15:46:55.389Z,50.90
2018-09-14T15:49:24.984Z,50.90
2018-09-14T15:51:52.512Z,51.00
2018-09-14T15:54:20.073Z,51.10
2018-09-14T15:56:48.229Z,51.10
2018-09-14T15:59:15.788Z,51.00
2018-09-14T16:01:43.346Z,51.00
2018-09-14T16:04:10.943Z,50.90
2018-09-14T16:06:38.496Z,51.30
2018-09-14T16:09:06.048Z,51.20
2018-09-14T16:11:33.691Z,51.10
2018-09-14T16:14:01.324Z,51.20
2018-09-14T16:16:28.821Z,51.20
2018-09-14T16:18:56.901Z,50.90
2018-09-14T16:21:24.452Z,51.10
2018-09-14T16:23:52.036Z,51.10
2018-09-14T16:26:19.673Z,51.00
2018-09-14T16:28:47.235Z,50.00
2018-09-14T16:31:15.084Z,49.20
2018-09-14T16:33:42.697Z,49.50
2018-09-14T16:36:10.256Z,49.10
2018-09-14T16:38:37.809Z,49.00
2018-09-14T16:41:06.344Z,49.00
2018-09-14T16:43:33.903Z,48.00
2018-09-14T16:46:01.456Z,48.00
2018-09-14T16:48:29.045Z,48.00
2018-09-14T16:50:56.605Z,48.20
2018-09-14T16:53:24.211Z,48.10
2018-09-14T16:55:51.772Z,48.10
2018-09-14T16:58:19.326Z,48.30
2018-09-14T17:00:47.740Z,48.40
2018-09-14T17:03:15.297Z,48.60
2018-09-14T17:05:43.626Z,48.90
2018-09-14T17:08:11.210Z,48.90
2018-09-14T17:10:38.763Z,49.00
2018-09-14T17:13:06.384Z,49.10
2018-09-14T17:15:33.941Z,49.00
2018-09-14T17:18:01.496Z,48.90
2018-09-14T17:20:29.105Z,49.60
2018-09-14T17:22:56.659Z,50.20
2018-09-14T17:25:24.216Z,50.60
2018-09-14T17:27:51.801Z,51.40
2018-09-14T17:30:19.362Z,51.40
2018-09-14T17:32:47.613Z,51.70
2018-09-14T17:35:15.172Z,52.10
2018-09-14T17:37:42.730Z,50.10
2018-09-14T17:40:11.041Z,50.00
2018-09-14T17:42:38.596Z,50.30
2018-09-14T17:45:06.157Z,50.40
2018-09-14T17:47:33.798Z,50.40
2018-09-14T17:50:01.391Z,50.50
2018-09-14T17:52:28.904Z,51.20
2018-09-14T17:54:56.543Z,51.90
2018-09-14T17:57:24.925Z,53.20
2018-09-14T17:59:52.427Z,53.10
2018-09-14T18:02:20.043Z,54.20
2018-09-14T18:04:48.372Z,54.40
2018-09-14T18:07:15.954Z,54.40
2018-09-14T18:09:43.584Z,54.70
2018-09-14T18:12:11.148Z,55.00
2018-09-14T18:14:38.700Z,55.50
2018-09-14T18:17:06.300Z,55.50
2018-09-14T18:19:33.854Z,55.60
2018-09-14T18:22:01.421Z,55.90
2018-09-14T18:24:29.040Z,56.40
2018-09-14T18:26:56.598Z,56.20
2018-09-14T18:29:24.146Z,56.10
2018-09-14T18:31:51.725Z,56.00
2018-09-14T18:34:19.283Z,56.40
2018-09-14T18:36:47.482Z,56.90
2018-09-14T18:39:15.034Z,57.40
2018-09-14T18:41:42.586Z,57.80
2018-09-14T18:44:10.210Z,58.20
2018-09-14T18:46:37.778Z,58.60
2018-09-14T18:49:06.089Z,59.20
2018-09-14T18:51:34.594Z,59.20
2018-09-14T18:54:02.188Z,59.50
2018-09-14T18:56:29.710Z,59.80
2018-09-14T18:58:57.321Z,60.10
2018-09-14T19:01:25.643Z,61.00
2018-09-14T19:03:53.203Z,60.90
2018-09-14T19:06:20.809Z,61.40
2018-09-14T19:08:48.379Z,61.90
2018-09-14T19:11:16.706Z,62.80
2018-09-14T19:13:44.337Z,62.80
2018-09-14T19:16:11.892Z,63.10
2018-09-14T19:18:40.208Z,63.70
2018-09-14T19:21:07.824Z,63.70
2018-09-14T19:23:36.462Z,64.10
2018-09-14T19:26:04.008Z,64.10
2018-09-14T19:28:32.094Z,64.30
2018-09-14T19:30:59.653Z,64.50
2018-09-14T19:33:27.198Z,64.90
2018-09-14T19:35:54.783Z,65.30
2018-09-14T19:38:22.419Z,65.60
2018-09-14T19:40:50.509Z,66.60
2018-09-14T19:43:18.073Z,66.10
2018-09-14T19:45:45.626Z,66.40
2018-09-14T19:48:13.249Z,66.70
2018-09-14T19:50:41.568Z,67.60
2018-09-14T19:53:09.131Z,67.50
2018-09-14T19:55:36.719Z,67.90
2018-09-14T19:58:04.267Z,68.20
2018-09-14T20:00:32.746Z,68.40
2018-09-14T20:03:00.303Z,68.80
2018-09-14T20:05:27.869Z,69.00
2018-09-14T20:07:55.740Z,69.00
2018-09-14T20:10:23.295Z,69.30
2018-09-14T20:12:50.852Z,69.60
2018-09-14T20:15:18.444Z,69.90
2018-09-14T20:17:46.068Z,70.00
2018-09-14T20:20:13.680Z,70.20
2018-09-14T20:22:41.248Z,70.10
2018-09-14T20:25:08.808Z,70.50
2018-09-14T20:27:37.174Z,70.10
2018-09-14T20:30:04.750Z,70.00
2018-09-14T20:32:33.081Z,70.60
2018-09-14T20:35:00.689Z,70.60
2018-09-14T20:37:28.246Z,70.10
2018-09-14T20:39:55.795Z,70.20
2018-09-14T20:42:23.386Z,70.70
2018-09-14T20:44:51.703Z,72.00
2018-09-14T20:47:19.312Z,71.90
2018-09-14T20:49:46.867Z,72.20
2018-09-14T20:52:15.372Z,71.70
2018-09-14T20:54:43.489Z,72.00
2018-09-14T20:57:11.045Z,72.20
2018-09-14T20:59:38.617Z,72.50
2018-09-14T21:02:06.933Z,72.80
2018-09-14T21:04:35.260Z,74.20
2018-09-14T21:07:02.811Z,73.50
2018-09-14T21:09:30.399Z,73.70
2018-09-14T21:11:57.955Z,73.80
2018-09-14T21:14:26.400Z,74.00
2018-09-14T21:16:53.952Z,74.20
2018-09-14T21:19:22.271Z,74.50
2018-09-14T21:21:49.885Z,74.40
2018-09-14T21:24:17.442Z,74.60
2018-09-14T21:26:45.760Z,75.90
2018-09-14T21:29:14.066Z,75.10
2018-09-14T21:31:41.576Z,75.30
2018-09-14T21:34:09.138Z,75.60
2018-09-14T21:36:37.487Z,76.20
2018-09-14T21:39:05.060Z,76.10
2018-09-14T21:41:33.432Z,76.40
2018-09-14T21:44:00.992Z,76.30
2018-09-14T21:46:28.552Z,75.70
2018-09-14T21:48:56.617Z,75.90
2018-09-14T21:51:24.170Z,75.90
2018-09-14T21:53:51.784Z,76.10
2018-09-14T21:56:19.818Z,76.20
2018-09-14T21:58:47.378Z,76.40
2018-09-14T22:01:14.935Z,77.50
2018-09-14T22:03:42.892Z,77.10
2018-09-14T22:06:10.451Z,77.10
2018-09-14T22:08:39.038Z,77.60
2018-09-14T22:11:06.615Z,77.00
2018-09-14T22:13:34.174Z,77.00
2018-09-14T22:16:02.650Z,77.90
2018-09-14T22:18:30.200Z,77.20
2018-09-14T22:20:57.754Z,76.60
2018-09-14T22:23:25.349Z,76.30
2018-09-14T22:25:52.904Z,76.40
2018-09-14T22:28:21.360Z,76.70
2018-09-14T22:30:48.966Z,77.00
2018-09-14T22:33:16.502Z,77.50
2018-09-14T22:35:44.451Z,77.20
2018-09-14T22:38:12.011Z,76.70
2018-09-14T22:40:39.564Z,76.30
2018-09-14T22:43:07.195Z,77.00
2018-09-14T22:45:35.566Z,79.50
2018-09-14T22:48:03.883Z,79.30
2018-09-14T22:50:31.464Z,79.20
2018-09-14T22:52:59.016Z,79.60
2018-09-14T22:55:26.612Z,79.70
2018-09-14T22:57:54.165Z,79.70
2018-09-14T23:00:21.713Z,80.00
2018-09-14T23:02:49.304Z,80.00
2018-09-14T23:05:16.876Z,80.50
2018-09-14T23:07:44.432Z,79.90
2018-09-14T23:10:12.789Z,80.30
2018-09-14T23:12:40.343Z,80.30
2018-09-14T23:15:07.892Z,80.30
2018-09-14T23:17:35.494Z,80.40
2018-09-14T23:20:03.819Z,79.10
2018-09-14T23:22:31.906Z,79.00
2018-09-14T23:24:59.458Z,78.50
2018-09-14T23:27:27.010Z,78.90
2018-09-14T23:29:54.599Z,79.30
2018-09-14T23:32:22.150Z,79.80
2018-09-14T23:34:49.705Z,80.10
2018-09-14T23:37:17.287Z,80.30
2018-09-14T23:39:44.839Z,80.60
2018-09-14T23:42:12.397Z,80.70
2018-09-14T23:44:39.980Z,81.50
2018-09-14T23:47:07.537Z,80.90
2018-09-14T23:49:35.133Z,81.00
2018-09-14T23:52:02.692Z,81.10
2018-09-14T23:54:31.016Z,81.50
2018-09-14T23:56:58.616Z,81.50
2018-09-14T23:59:26.175Z,81.70
